createdAt,value
2022-12-09T00:02:23.176Z,19.30
2022-12-09T00:07:26.664Z,23.23
2022-12-09T00:12:29.921Z,23.95
2022-12-09T00:17:33.482Z,21.25
2022-12-09T00:22:37.015Z,26.05
2022-12-09T00:27:40.626Z,25.30
2022-12-09T00:32:44.653Z,22.00
2022-12-09T00:37:49.543Z,25.83
2022-12-09T00:42:53.078Z,28.20
2022-12-09T00:47:57.504Z,19.17
2022-12-09T00:53:02.422Z,23.02
2022-12-09T00:58:06.468Z,23.05
2022-12-09T01:03:19.017Z,30.05
2022-12-09T01:08:23.224Z,21.48
2022-12-09T01:13:27.598Z,22.33
2022-12-09T01:18:32.222Z,25.33
2022-12-09T01:23:36.144Z,23.65
2022-12-09T01:28:40.388Z,22.20
2022-12-09T01:33:44.727Z,26.02
2022-12-09T01:38:50.032Z,25.90
2022-12-09T01:44:11.895Z,26.73
2022-12-09T01:49:31.209Z,24.93
2022-12-09T01:54:34.765Z,23.38
2022-12-09T01:59:41.277Z,31.27
2022-12-09T02:04:46.566Z,24.23
2022-12-09T02:09:52.575Z,21.27
2022-12-09T02:15:19.683Z,26.00
2022-12-09T02:20:39.302Z,20.83
2022-12-09T02:25:55.649Z,23.83
2022-12-09T02:31:18.371Z,25.80
2022-12-09T02:36:29.045Z,20.83
2022-12-09T02:41:36.179Z,19.93
2022-12-09T02:46:42.756Z,23.85
2022-12-09T02:51:50.509Z,21.90
2022-12-09T02:56:58.534Z,29.55
2022-12-09T03:02:11.235Z,22.10
2022-12-09T03:07:17.667Z,20.67
2022-12-09T03:12:22.693Z,20.80
2022-12-09T03:17:34.064Z,18.27
2022-12-09T03:22:41.385Z,18.65
2022-12-09T03:27:50.540Z,20.33
2022-12-09T03:32:56.084Z,24.48
2022-12-09T03:38:02.769Z,24.63
2022-12-09T03:43:13.342Z,21.85
2022-12-09T03:48:17.850Z,20.95
2022-12-09T03:53:50.943Z,20.58
2022-12-09T03:58:58.439Z,24.17
2022-12-09T04:04:02.468Z,30.35
2022-12-09T04:09:06.856Z,25.20
2022-12-09T04:14:15.582Z,23.50
2022-12-09T04:19:19.810Z,25.92
2022-12-09T04:24:23.317Z,24.85
2022-12-09T04:29:26.986Z,27.25
2022-12-09T04:34:30.420Z,24.10
2022-12-09T04:39:34.343Z,28.88
2022-12-09T04:44:38.610Z,31.05
2022-12-09T04:49:42.793Z,24.58
2022-12-09T04:54:46.881Z,30.05
2022-12-09T04:59:51.114Z,31.92
2022-12-09T05:04:54.962Z,28.52
2022-12-09T05:09:59.478Z,29.17
2022-12-09T05:15:03.348Z,25.50
2022-12-09T05:20:08.348Z,28.38
2022-12-09T05:25:12.139Z,31.63
2022-12-09T05:30:16.463Z,26.23
2022-12-09T05:35:19.870Z,29.05
2022-12-09T05:40:23.633Z,29.40
2022-12-09T05:45:27.477Z,23.88
2022-12-09T05:50:31.145Z,31.90
2022-12-09T05:55:35.020Z,30.98
2022-12-09T06:00:38.718Z,28.45
2022-12-09T06:05:43.309Z,26.85
2022-12-09T06:10:47.367Z,30.42
2022-12-09T06:15:51.237Z,29.40
2022-12-09T06:20:54.703Z,27.92
2022-12-09T06:25:58.343Z,28.75
2022-12-09T06:31:02.808Z,28.02
2022-12-09T06:36:07.907Z,28.83
2022-12-09T06:41:14.264Z,25.77
2022-12-09T06:46:21.404Z,31.90
2022-12-09T06:51:26.102Z,28.17
2022-12-09T06:56:29.642Z,38.95
2022-12-09T07:01:33.200Z,32.40
2022-12-09T07:06:44.406Z,30.33
2022-12-09T07:11:48.891Z,34.42
2022-12-09T07:16:52.958Z,32.10
2022-12-09T07:21:57.150Z,33.30
2022-12-09T07:27:06.159Z,37.85
2022-12-09T07:32:12.344Z,31.50
2022-12-09T07:37:16.365Z,29.67
2022-12-09T07:42:19.805Z,33.58
2022-12-09T07:47:30.252Z,32.78
2022-12-09T07:52:34.451Z,29.33
2022-12-09T07:57:38.839Z,28.23
2022-12-09T08:02:44.084Z,34.55
2022-12-09T08:07:48.456Z,30.80
2022-12-09T08:12:53.547Z,27.83
2022-12-09T08:18:00.279Z,27.92
2022-12-09T08:23:05.651Z,37.85
2022-12-09T08:28:09.489Z,26.73
2022-12-09T08:33:13.040Z,28.45
2022-12-09T08:38:16.793Z,26.13
2022-12-09T08:43:21.440Z,26.88
2022-12-09T08:48:25.467Z,29.75
2022-12-09T08:53:29.148Z,26.92
2022-12-09T08:58:34.326Z,31.55
2022-12-09T09:03:38.315Z,29.13
2022-12-09T09:08:42.339Z,34.92
2022-12-09T09:13:48.825Z,31.25
2022-12-09T09:18:54.238Z,30.13
2022-12-09T09:23:57.972Z,30.90
2022-12-09T09:29:01.549Z,35.35
2022-12-09T09:34:05.702Z,35.95
2022-12-09T09:39:09.822Z,30.02
2022-12-09T09:44:36.072Z,30.58
2022-12-09T09:49:56.326Z,30.90
2022-12-09T09:55:06.883Z,26.60
2022-12-09T10:00:25.022Z,28.90
2022-12-09T10:05:36.123Z,35.50
2022-12-09T10:10:49.428Z,33.35
2022-12-09T10:16:14.405Z,26.05
2022-12-09T10:21:20.892Z,34.13
2022-12-09T10:26:29.201Z,26.05
2022-12-09T10:31:34.434Z,39.45
2022-12-09T10:36:39.600Z,40.63
2022-12-09T10:41:50.113Z,27.00
2022-12-09T10:47:05.129Z,28.80
2022-12-09T10:52:09.317Z,25.38
2022-12-09T10:57:13.013Z,26.52
2022-12-09T11:02:22.351Z,23.33
2022-12-09T11:07:28.923Z,26.77
2022-12-09T11:12:40.622Z,28.77
2022-12-09T11:17:57.674Z,25.67
2022-12-09T11:23:05.270Z,29.70
2022-12-09T11:28:18.197Z,25.80
2022-12-09T11:33:29.788Z,27.92
2022-12-09T11:38:48.567Z,32.85
2022-12-09T11:43:57.114Z,32.38
2022-12-09T11:49:18.674Z,28.90
2022-12-09T11:54:32.466Z,29.40
2022-12-09T11:59:45.508Z,24.48
2022-12-09T12:05:03.444Z,21.70
2022-12-09T12:10:18.055Z,23.27
2022-12-09T12:15:32.650Z,29.92
2022-12-09T12:20:55.249Z,26.92
2022-12-09T12:26:10.967Z,27.25
2022-12-09T12:31:38.986Z,30.70
2022-12-09T12:36:53.166Z,32.97
2022-12-09T12:42:22.720Z,34.85
2022-12-09T12:47:28.835Z,39.05
2022-12-09T12:52:57.449Z,35.42
2022-12-09T12:58:31.183Z,36.15
2022-12-09T13:03:48.951Z,27.45
2022-12-09T13:09:03.401Z,35.53
2022-12-09T13:14:16.817Z,31.50
2022-12-09T13:19:44.361Z,24.85
2022-12-09T13:25:14.148Z,27.52
2022-12-09T13:30:27.223Z,21.73
2022-12-09T13:35:34.026Z,25.50
2022-12-09T13:40:38.807Z,25.33
2022-12-09T13:45:44.889Z,25.88
2022-12-09T13:50:51.078Z,30.33
2022-12-09T13:56:08.105Z,28.48
2022-12-09T14:01:12.250Z,32.40
2022-12-09T14:06:29.926Z,35.92
2022-12-09T14:11:43.763Z,30.42
2022-12-09T14:16:47.331Z,35.97
2022-12-09T14:22:19.080Z,35.45
2022-12-09T14:27:31.711Z,30.25
2022-12-09T14:32:36.352Z,36.05
2022-12-09T14:38:02.901Z,42.22
2022-12-09T14:43:50.141Z,42.97
2022-12-09T14:48:59.111Z,42.28
2022-12-09T14:54:13.293Z,37.83
2022-12-09T14:59:23.830Z,43.00
2022-12-09T15:04:42.059Z,39.28
2022-12-09T15:09:59.470Z,43.25
2022-12-09T15:15:38.100Z,42.00
2022-12-09T15:20:42.489Z,40.75
2022-12-09T15:25:53.296Z,45.45
2022-12-09T15:31:00.650Z,37.40
2022-12-09T15:36:14.715Z,44.10
2022-12-09T15:41:20.023Z,38.90
2022-12-09T15:46:26.744Z,43.08
2022-12-09T15:51:31.017Z,37.88
2022-12-09T15:56:44.153Z,40.90
2022-12-09T16:01:51.003Z,39.03
2022-12-09T16:06:54.945Z,40.78
2022-12-09T16:11:58.214Z,37.55
2022-12-09T16:17:04.071Z,39.88
2022-12-09T16:22:11.713Z,38.67
2022-12-09T16:27:20.437Z,40.40
2022-12-09T16:32:30.693Z,41.08
2022-12-09T16:37:33.979Z,38.80
2022-12-09T16:42:40.870Z,43.88
2022-12-09T16:47:45.456Z,43.88
2022-12-09T16:52:49.339Z,44.80
2022-12-09T16:57:54.314Z,41.80
2022-12-09T17:03:06.678Z,43.92
2022-12-09T17:08:10.245Z,39.05
2022-12-09T17:13:13.916Z,47.83
2022-12-09T17:18:17.319Z,45.05
2022-12-09T17:23:20.855Z,45.53
2022-12-09T17:28:29.765Z,45.58
2022-12-09T17:33:33.736Z,48.78
2022-12-09T17:38:38.736Z,48.75
2022-12-09T17:43:43.416Z,46.92
2022-12-09T17:48:46.790Z,53.40
2022-12-09T17:53:50.335Z,50.83
2022-12-09T17:59:05.533Z,46.97
2022-12-09T18:04:09.676Z,44.35
2022-12-09T18:09:16.264Z,50.17
2022-12-09T18:14:20.041Z,45.85
2022-12-09T18:19:23.508Z,48.83
2022-12-09T18:24:28.630Z,44.10
2022-12-09T18:29:32.273Z,41.47
2022-12-09T18:34:35.685Z,43.20
2022-12-09T18:39:39.082Z,43.38
2022-12-09T18:44:42.845Z,49.78
2022-12-09T18:49:46.625Z,43.08
2022-12-09T18:54:50.338Z,44.72
2022-12-09T18:59:54.840Z,45.85
2022-12-09T19:04:58.230Z,47.78
2022-12-09T19:10:01.695Z,44.85
2022-12-09T19:15:07.929Z,44.45
2022-12-09T19:20:11.581Z,37.85
2022-12-09T19:25:14.964Z,48.33
2022-12-09T19:30:18.507Z,44.65
2022-12-09T19:35:22.226Z,43.67
2022-12-09T19:40:25.729Z,44.60
2022-12-09T19:45:29.116Z,39.85
2022-12-09T19:50:32.542Z,38.50
2022-12-09T19:55:36.187Z,36.47
2022-12-09T20:00:41.556Z,37.60
2022-12-09T20:05:53.747Z,35.40
2022-12-09T20:10:57.153Z,32.30
2022-12-09T20:16:08.846Z,34.37
2022-12-09T20:21:13.610Z,38.90
2022-12-09T20:26:26.141Z,44.30
2022-12-09T20:31:31.659Z,37.80
2022-12-09T20:36:36.578Z,38.65
2022-12-09T20:41:41.213Z,37.35
2022-12-09T20:46:50.945Z,38.22
2022-12-09T20:51:54.620Z,41.67
2022-12-09T20:56:58.203Z,46.33
2022-12-09T21:02:01.755Z,42.60
2022-12-09T21:07:06.140Z,46.08
2022-12-09T21:12:10.885Z,42.55
2022-12-09T21:17:14.263Z,47.17
2022-12-09T21:22:17.757Z,44.88
2022-12-09T21:27:21.064Z,47.67
2022-12-09T21:32:25.313Z,48.05
2022-12-09T21:37:29.619Z,48.67
2022-12-09T21:42:34.513Z,47.63
2022-12-09T21:47:37.895Z,47.22
2022-12-09T21:52:41.509Z,49.63
2022-12-09T21:57:45.341Z,50.72
2022-12-09T22:02:52.282Z,62.00
2022-12-09T22:07:56.632Z,57.83
2022-12-09T22:12:59.952Z,59.47
2022-12-09T22:18:03.358Z,61.67
2022-12-09T22:23:06.868Z,65.10
2022-12-09T22:28:10.450Z,64.13
2022-12-09T22:33:13.816Z,62.53
2022-12-09T22:38:17.273Z,64.30
2022-12-09T22:43:20.612Z,59.50
2022-12-09T22:48:24.474Z,72.68
2022-12-09T22:53:27.776Z,62.65
2022-12-09T22:58:31.641Z,71.75
2022-12-09T23:03:35.225Z,59.03
2022-12-09T23:08:40.285Z,65.78
2022-12-09T23:13:44.536Z,64.82
2022-12-09T23:18:48.424Z,63.90
2022-12-09T23:23:56.812Z,61.42
2022-12-09T23:29:01.788Z,64.15
2022-12-09T23:34:07.526Z,62.28
2022-12-09T23:39:13.730Z,56.85
2022-12-09T23:44:19.094Z,52.00
2022-12-09T23:49:22.522Z,52.80
2022-12-09T23:54:25.839Z,56.42
2022-12-09T23:59:29.107Z,53.83
